createdAt,value
2022-10-07T00:01:04.321Z,99.90
2022-10-07T00:03:32.749Z,99.90
2022-10-07T00:06:06.287Z,99.90
2022-10-07T00:08:36.642Z,99.90
2022-10-07T00:11:07.460Z,99.90
2022-10-07T00:13:36.678Z,99.90
2022-10-07T00:16:07.238Z,99.90
2022-10-07T00:18:36.083Z,99.90
2022-10-07T00:21:07.284Z,99.90
2022-10-07T00:23:35.397Z,99.90
2022-10-07T00:26:04.475Z,99.90
2022-10-07T00:28:32.342Z,99.90
2022-10-07T00:31:01.531Z,99.90
2022-10-07T00:33:32.324Z,99.90
2022-10-07T00:36:00.081Z,99.90
2022-10-07T00:38:29.134Z,99.90
2022-10-07T00:40:56.831Z,99.90
2022-10-07T00:43:26.362Z,99.90
2022-10-07T00:45:56.650Z,99.90
2022-10-07T00:48:27.914Z,99.90
2022-10-07T00:50:58.405Z,99.90
2022-10-07T00:53:29.040Z,99.90
2022-10-07T00:56:01.737Z,99.90
2022-10-07T00:58:31.162Z,99.90
2022-10-07T01:00:59.211Z,99.90
2022-10-07T01:03:27.114Z,99.90
2022-10-07T01:05:54.949Z,99.90
2022-10-07T01:08:23.914Z,99.90
2022-10-07T01:10:59.109Z,99.90
2022-10-07T01:13:34.302Z,99.90
2022-10-07T01:16:07.754Z,99.90
2022-10-07T01:18:43.148Z,99.90
2022-10-07T01:21:22.997Z,99.90
2022-10-07T01:24:06.271Z,99.90
2022-10-07T01:26:47.033Z,99.90
2022-10-07T01:29:18.719Z,99.90
2022-10-07T01:31:50.749Z,99.90
2022-10-07T01:34:19.825Z,99.90
2022-10-07T01:36:50.995Z,99.90
2022-10-07T01:39:23.598Z,99.90
2022-10-07T01:41:53.873Z,99.90
2022-10-07T01:44:22.323Z,99.90
2022-10-07T01:46:50.049Z,99.90
2022-10-07T01:49:17.726Z,99.90
2022-10-07T01:51:48.858Z,99.90
2022-10-07T01:54:28.466Z,99.90
2022-10-07T01:57:13.287Z,99.90
2022-10-07T02:00:05.443Z,99.90
2022-10-07T02:02:47.252Z,99.90
2022-10-07T02:05:26.378Z,99.90
2022-10-07T02:08:09.225Z,99.90
2022-10-07T02:10:49.236Z,99.90
2022-10-07T02:13:25.169Z,99.90
2022-10-07T02:16:01.865Z,99.90
2022-10-07T02:18:32.441Z,99.90
2022-10-07T02:21:04.045Z,99.90
2022-10-07T02:23:34.306Z,99.90
2022-10-07T02:26:04.276Z,99.90
2022-10-07T02:28:36.792Z,99.90
2022-10-07T02:31:06.948Z,99.90
2022-10-07T02:33:36.582Z,99.90
2022-10-07T02:36:10.708Z,99.90
2022-10-07T02:38:39.699Z,99.90
2022-10-07T02:41:14.061Z,99.90
2022-10-07T02:43:48.709Z,99.90
2022-10-07T02:46:22.579Z,99.90
2022-10-07T02:48:58.778Z,99.90
2022-10-07T02:51:30.169Z,99.90
2022-10-07T02:53:58.802Z,99.90
2022-10-07T02:56:28.129Z,99.90
2022-10-07T02:58:58.302Z,99.90
2022-10-07T03:01:31.040Z,99.90
2022-10-07T03:03:59.310Z,99.90
2022-10-07T03:06:29.599Z,99.90
2022-10-07T03:09:00.251Z,99.90
2022-10-07T03:11:28.621Z,99.90
2022-10-07T03:13:58.411Z,99.90
2022-10-07T03:16:26.163Z,99.90
2022-10-07T03:18:54.190Z,99.90
2022-10-07T03:21:22.117Z,99.90
2022-10-07T03:23:51.622Z,99.90
2022-10-07T03:26:19.412Z,99.90
2022-10-07T03:28:47.663Z,99.90
2022-10-07T03:31:16.773Z,99.90
2022-10-07T03:33:44.525Z,99.90
2022-10-07T03:36:13.358Z,99.90
2022-10-07T03:38:41.055Z,99.90
2022-10-07T03:41:08.757Z,99.90
2022-10-07T03:43:36.738Z,99.90
2022-10-07T03:46:04.824Z,99.90
2022-10-07T03:48:34.096Z,99.90
2022-10-07T03:51:01.832Z,99.90
2022-10-07T03:53:29.838Z,99.90
2022-10-07T03:55:57.672Z,99.90
2022-10-07T03:58:25.763Z,99.90
2022-10-07T04:00:53.736Z,99.90
2022-10-07T04:03:21.517Z,99.90
2022-10-07T04:06:00.591Z,99.90
2022-10-07T04:08:29.161Z,99.90
2022-10-07T04:10:57.981Z,99.90
2022-10-07T04:13:26.265Z,99.90
2022-10-07T04:15:54.248Z,99.90
2022-10-07T04:18:22.239Z,99.90
2022-10-07T04:20:50.033Z,99.90
2022-10-07T04:23:19.130Z,99.90
2022-10-07T04:25:46.849Z,99.90
2022-10-07T04:28:18.803Z,99.90
2022-10-07T04:30:51.211Z,99.90
2022-10-07T04:33:19.856Z,99.90
2022-10-07T04:35:48.700Z,99.90
2022-10-07T04:38:18.084Z,99.90
2022-10-07T04:40:50.003Z,99.90
2022-10-07T04:43:23.771Z,99.90
2022-10-07T04:45:54.158Z,99.90
2022-10-07T04:48:23.287Z,99.90
2022-10-07T04:50:52.252Z,99.90
2022-10-07T04:53:20.456Z,99.90
2022-10-07T04:55:51.826Z,99.90
2022-10-07T04:58:20.496Z,99.90
2022-10-07T05:00:49.925Z,99.90
2022-10-07T05:03:19.956Z,99.90
2022-10-07T05:05:49.263Z,99.90
2022-10-07T05:08:18.705Z,99.90
2022-10-07T05:10:46.533Z,99.90
2022-10-07T05:13:17.832Z,99.90
2022-10-07T05:15:49.939Z,99.90
2022-10-07T05:18:19.127Z,99.90
2022-10-07T05:20:47.693Z,99.90
2022-10-07T05:23:16.890Z,99.90
2022-10-07T05:25:44.676Z,99.90
2022-10-07T05:28:13.307Z,99.90
2022-10-07T05:30:43.115Z,99.90
2022-10-07T05:33:10.940Z,99.90
2022-10-07T05:35:39.086Z,99.90
2022-10-07T05:38:06.766Z,99.90
2022-10-07T05:40:34.483Z,99.90
2022-10-07T05:43:02.201Z,99.90
2022-10-07T05:45:31.391Z,99.90
2022-10-07T05:48:00.605Z,99.90
2022-10-07T05:50:28.306Z,99.90
2022-10-07T05:52:57.078Z,99.90
2022-10-07T05:55:24.801Z,99.90
2022-10-07T05:57:52.487Z,99.90
2022-10-07T06:00:20.969Z,99.90
2022-10-07T06:02:48.690Z,99.90
2022-10-07T06:05:18.831Z,99.90
2022-10-07T06:07:46.865Z,99.90
2022-10-07T06:10:32.928Z,99.90
2022-10-07T06:13:09.535Z,99.90
2022-10-07T06:15:37.956Z,99.90
2022-10-07T06:18:05.982Z,99.90
2022-10-07T06:20:35.186Z,99.90
2022-10-07T06:23:02.892Z,99.90
2022-10-07T06:25:30.587Z,99.90
2022-10-07T06:27:58.878Z,99.90
2022-10-07T06:30:27.043Z,99.90
2022-10-07T06:32:54.815Z,99.90
2022-10-07T06:35:22.615Z,99.90
2022-10-07T06:37:51.612Z,99.90
2022-10-07T06:40:19.306Z,99.90
2022-10-07T06:42:47.002Z,99.90
2022-10-07T06:45:14.753Z,99.90
2022-10-07T06:47:42.851Z,99.90
2022-10-07T06:50:11.132Z,99.90
2022-10-07T06:52:43.322Z,99.90
2022-10-07T06:55:12.605Z,99.90
2022-10-07T06:57:45.722Z,99.90
2022-10-07T07:00:23.842Z,99.90
2022-10-07T07:02:51.651Z,99.90
2022-10-07T07:05:19.410Z,99.90
2022-10-07T07:07:47.537Z,99.90
2022-10-07T07:10:17.002Z,99.90
2022-10-07T07:12:45.092Z,99.90
2022-10-07T07:15:13.011Z,99.90
2022-10-07T07:17:40.817Z,99.90
2022-10-07T07:20:09.079Z,99.90
2022-10-07T07:22:36.941Z,99.90
2022-10-07T07:25:05.074Z,99.90
2022-10-07T07:27:34.088Z,99.90
2022-10-07T07:30:02.085Z,99.90
2022-10-07T07:32:30.285Z,99.90
2022-10-07T07:35:00.686Z,99.90
2022-10-07T07:37:29.545Z,99.90
2022-10-07T07:39:57.762Z,99.90
2022-10-07T07:42:25.800Z,99.90
2022-10-07T07:44:55.268Z,99.90
2022-10-07T07:47:24.167Z,99.90
2022-10-07T07:49:52.145Z,99.90
2022-10-07T07:52:20.232Z,99.90
2022-10-07T07:54:49.728Z,99.90
2022-10-07T07:57:17.428Z,99.90
2022-10-07T07:59:45.133Z,99.90
2022-10-07T08:02:14.203Z,99.90
2022-10-07T08:04:42.199Z,99.90
2022-10-07T08:07:13.077Z,99.90
2022-10-07T08:09:40.916Z,99.90
2022-10-07T08:12:09.480Z,99.90
2022-10-07T08:14:37.990Z,99.90
2022-10-07T08:17:05.677Z,99.90
2022-10-07T08:19:34.711Z,99.90
2022-10-07T08:22:02.444Z,99.90
2022-10-07T08:24:30.347Z,99.90
2022-10-07T08:26:58.088Z,99.90
2022-10-07T08:29:25.953Z,99.90
2022-10-07T08:31:53.754Z,99.90
2022-10-07T08:34:21.470Z,99.90
2022-10-07T08:36:51.813Z,99.90
2022-10-07T08:39:19.503Z,92.80
2022-10-07T08:41:56.736Z,71.30
2022-10-07T08:44:28.676Z,60.00
2022-10-07T08:47:02.092Z,54.40
2022-10-07T08:49:40.153Z,51.00
2022-10-07T08:52:26.345Z,48.50
2022-10-07T08:54:54.508Z,46.30
2022-10-07T08:57:43.178Z,46.10
2022-10-07T09:00:15.258Z,46.60
2022-10-07T09:02:53.620Z,46.50
2022-10-07T09:05:27.082Z,45.20
2022-10-07T09:07:59.504Z,44.70
2022-10-07T09:10:33.006Z,44.00
2022-10-07T09:13:03.146Z,45.00
2022-10-07T09:15:40.129Z,44.30
2022-10-07T09:18:19.179Z,46.00
2022-10-07T09:20:53.403Z,45.30
2022-10-07T09:23:25.262Z,44.80
2022-10-07T09:25:53.469Z,43.90
2022-10-07T09:28:26.779Z,44.70
2022-10-07T09:30:54.847Z,43.10
2022-10-07T09:33:24.597Z,42.60
2022-10-07T09:35:57.576Z,42.90
2022-10-07T09:38:35.955Z,42.00
2022-10-07T09:41:16.721Z,41.90
2022-10-07T09:43:59.332Z,41.60
2022-10-07T09:46:40.130Z,41.70
2022-10-07T09:49:08.727Z,41.70
2022-10-07T09:51:36.714Z,41.10
2022-10-07T09:54:17.854Z,41.00
2022-10-07T09:56:47.629Z,41.40
2022-10-07T09:59:21.453Z,41.50
2022-10-07T10:01:54.432Z,41.50
2022-10-07T10:04:27.868Z,42.50
2022-10-07T10:06:59.515Z,44.10
2022-10-07T10:09:28.944Z,44.40
2022-10-07T10:12:19.092Z,43.40
2022-10-07T10:14:51.539Z,43.40
2022-10-07T10:17:31.436Z,44.20
2022-10-07T10:20:28.288Z,44.90
2022-10-07T10:22:56.823Z,45.30
2022-10-07T10:25:51.823Z,44.90
2022-10-07T10:28:30.451Z,46.60
2022-10-07T10:31:04.042Z,50.00
2022-10-07T10:33:38.341Z,53.50
2022-10-07T10:36:13.925Z,56.30
2022-10-07T10:38:48.415Z,60.30
2022-10-07T10:41:28.116Z,64.40
2022-10-07T10:44:19.873Z,66.90
2022-10-07T10:46:57.138Z,69.60
2022-10-07T10:49:30.866Z,71.50
2022-10-07T10:52:15.122Z,72.40
2022-10-07T10:54:58.885Z,72.60
2022-10-07T10:57:38.617Z,75.30
2022-10-07T11:00:12.958Z,77.30
2022-10-07T11:02:59.327Z,76.70
2022-10-07T11:05:32.023Z,77.00
2022-10-07T11:08:03.080Z,79.10
2022-10-07T11:10:36.994Z,78.40
2022-10-07T11:13:23.071Z,80.00
2022-10-07T11:15:54.886Z,87.00
2022-10-07T11:18:29.447Z,87.50
2022-10-07T11:20:59.416Z,84.20
2022-10-07T11:23:41.723Z,81.40
2022-10-07T11:26:17.982Z,83.50
2022-10-07T11:28:49.674Z,83.00
2022-10-07T11:31:25.191Z,82.20
2022-10-07T11:34:04.618Z,82.40
2022-10-07T11:36:42.827Z,86.10
2022-10-07T11:39:10.777Z,80.60
2022-10-07T11:41:48.513Z,81.30
2022-10-07T11:44:23.782Z,78.20
2022-10-07T11:46:52.596Z,78.00
2022-10-07T11:49:24.662Z,79.00
2022-10-07T11:51:59.603Z,81.20
2022-10-07T11:54:32.472Z,77.50
2022-10-07T11:57:00.906Z,75.80
2022-10-07T11:59:43.768Z,74.70
2022-10-07T12:02:37.857Z,75.30
2022-10-07T12:05:07.970Z,76.10
2022-10-07T12:07:56.259Z,74.60
2022-10-07T12:10:27.179Z,75.60
2022-10-07T12:13:14.464Z,74.40
2022-10-07T12:15:44.773Z,73.60
2022-10-07T12:18:39.871Z,70.50
2022-10-07T12:21:08.934Z,75.70
2022-10-07T12:23:45.881Z,74.10
2022-10-07T12:26:52.682Z,72.60
2022-10-07T12:29:48.250Z,72.60
2022-10-07T12:32:57.182Z,70.40
2022-10-07T12:35:59.523Z,72.40
2022-10-07T12:38:29.982Z,72.90
2022-10-07T12:41:23.069Z,71.30
2022-10-07T12:43:58.290Z,70.00
2022-10-07T12:46:30.266Z,73.30
2022-10-07T12:49:02.391Z,73.40
2022-10-07T12:51:37.614Z,72.30
2022-10-07T12:54:07.450Z,72.50
2022-10-07T12:56:35.626Z,75.00
2022-10-07T12:59:49.691Z,74.20
2022-10-07T13:02:54.978Z,72.50
2022-10-07T13:05:58.256Z,74.20
2022-10-07T13:08:58.338Z,73.60
2022-10-07T13:11:59.805Z,75.30
2022-10-07T13:14:34.386Z,75.90
2022-10-07T13:17:18.125Z,76.10
2022-10-07T13:19:52.272Z,76.20
2022-10-07T13:22:20.807Z,75.60
2022-10-07T13:24:51.929Z,76.40
2022-10-07T13:27:21.807Z,77.40
2022-10-07T13:29:49.697Z,77.70
2022-10-07T13:32:19.143Z,77.10
2022-10-07T13:34:47.423Z,76.10
2022-10-07T13:37:29.369Z,77.00
2022-10-07T13:40:18.962Z,76.40
2022-10-07T13:42:48.012Z,77.40
2022-10-07T13:45:16.666Z,78.60
2022-10-07T13:47:46.890Z,76.40
2022-10-07T13:50:21.843Z,77.20
2022-10-07T13:52:53.053Z,76.50
2022-10-07T13:55:29.240Z,76.90
2022-10-07T13:58:00.719Z,79.40
2022-10-07T14:00:29.370Z,77.40
2022-10-07T14:02:57.235Z,78.90
2022-10-07T14:05:28.524Z,79.00
2022-10-07T14:07:58.198Z,78.50
2022-10-07T14:10:29.883Z,80.90
2022-10-07T14:13:00.394Z,80.60
2022-10-07T14:15:30.117Z,80.30
2022-10-07T14:18:00.616Z,78.20
2022-10-07T14:20:31.170Z,76.90
2022-10-07T14:23:01.403Z,76.90
2022-10-07T14:25:32.644Z,75.30
2022-10-07T14:28:16.559Z,75.20
2022-10-07T14:31:03.931Z,74.50
2022-10-07T14:33:59.774Z,72.30
2022-10-07T14:36:28.136Z,72.10
2022-10-07T14:38:58.081Z,72.20
2022-10-07T14:41:29.919Z,73.50
2022-10-07T14:43:59.984Z,73.30
2022-10-07T14:46:29.185Z,74.90
2022-10-07T14:48:57.008Z,74.00
2022-10-07T14:51:27.387Z,73.10
2022-10-07T14:53:57.994Z,75.90
2022-10-07T14:56:29.157Z,73.90
2022-10-07T14:58:56.908Z,75.50
2022-10-07T15:01:25.550Z,74.80
2022-10-07T15:03:53.594Z,75.20
2022-10-07T15:06:21.612Z,75.80
2022-10-07T15:08:49.857Z,76.60
2022-10-07T15:11:18.879Z,76.60
2022-10-07T15:13:48.461Z,77.00
2022-10-07T15:16:17.648Z,75.90
2022-10-07T15:18:49.683Z,77.00
2022-10-07T15:21:20.609Z,78.40
2022-10-07T15:23:51.887Z,79.40
2022-10-07T15:26:23.223Z,79.20
2022-10-07T15:28:54.965Z,80.70
2022-10-07T15:31:24.250Z,81.50
2022-10-07T15:33:52.154Z,84.40
2022-10-07T15:36:19.854Z,86.10
2022-10-07T15:38:47.538Z,86.60
2022-10-07T15:41:30.284Z,90.40
2022-10-07T15:44:00.163Z,92.10
2022-10-07T15:46:28.805Z,93.80
2022-10-07T15:48:57.135Z,94.00
2022-10-07T15:51:25.630Z,95.90
2022-10-07T15:53:53.878Z,99.90
2022-10-07T15:56:21.927Z,99.90
2022-10-07T15:58:49.614Z,99.90
2022-10-07T16:01:18.666Z,99.90
2022-10-07T16:03:50.133Z,99.90
2022-10-07T16:06:20.675Z,99.90
2022-10-07T16:08:48.921Z,99.90
2022-10-07T16:11:16.943Z,99.90
2022-10-07T16:13:46.992Z,99.90
2022-10-07T16:16:16.337Z,99.90
2022-10-07T16:18:46.646Z,99.90
2022-10-07T16:21:16.454Z,99.90
2022-10-07T16:23:46.599Z,99.90
2022-10-07T16:26:16.632Z,99.90
2022-10-07T16:29:03.875Z,99.90
2022-10-07T16:31:32.441Z,99.90
2022-10-07T16:34:01.823Z,99.90
2022-10-07T16:36:29.833Z,99.90
2022-10-07T16:38:59.692Z,99.90
2022-10-07T16:41:27.610Z,99.90
2022-10-07T16:43:57.438Z,99.90
2022-10-07T16:46:25.377Z,99.90
2022-10-07T16:48:53.275Z,99.90
2022-10-07T16:51:24.885Z,99.90
2022-10-07T16:53:55.825Z,99.90
2022-10-07T16:56:24.426Z,99.90
2022-10-07T16:58:56.409Z,99.90
2022-10-07T17:01:25.550Z,99.90
2022-10-07T17:03:54.210Z,99.90
2022-10-07T17:06:24.561Z,99.90
2022-10-07T17:08:52.844Z,99.90
2022-10-07T17:11:29.751Z,99.90
2022-10-07T17:13:58.701Z,99.90
2022-10-07T17:16:28.702Z,99.90
2022-10-07T17:18:56.735Z,99.90
2022-10-07T17:21:25.796Z,99.90
2022-10-07T17:23:57.861Z,99.90
2022-10-07T17:26:27.188Z,99.90
2022-10-07T17:29:02.432Z,99.90
2022-10-07T17:31:31.192Z,99.90
2022-10-07T17:33:59.538Z,99.90
2022-10-07T17:36:28.983Z,99.90
2022-10-07T17:38:57.595Z,99.90
2022-10-07T17:41:27.112Z,99.90
2022-10-07T17:43:57.195Z,99.90
2022-10-07T17:46:26.534Z,99.90
2022-10-07T17:48:56.032Z,99.90
2022-10-07T17:51:27.357Z,99.90
2022-10-07T17:53:57.861Z,99.90
2022-10-07T17:56:25.676Z,99.90
2022-10-07T17:58:54.065Z,99.90
2022-10-07T18:01:24.150Z,99.90
2022-10-07T18:03:53.468Z,99.90
2022-10-07T18:06:23.673Z,99.90
2022-10-07T18:08:52.108Z,99.90
2022-10-07T18:11:21.178Z,99.90
2022-10-07T18:14:06.531Z,99.90
2022-10-07T18:16:36.069Z,99.90
2022-10-07T18:19:04.174Z,99.90
2022-10-07T18:21:32.712Z,99.90
2022-10-07T18:24:00.416Z,99.90
2022-10-07T18:26:29.611Z,99.90
2022-10-07T18:28:58.178Z,99.90
2022-10-07T18:31:26.984Z,99.90
2022-10-07T18:33:54.956Z,99.90
2022-10-07T18:36:22.835Z,99.90
2022-10-07T18:38:50.541Z,99.90
2022-10-07T18:41:19.053Z,99.90
2022-10-07T18:43:48.121Z,99.90
2022-10-07T18:46:17.922Z,99.90
2022-10-07T18:48:47.996Z,99.90
2022-10-07T18:51:16.311Z,99.90
2022-10-07T18:53:46.466Z,99.90
2022-10-07T18:56:16.204Z,99.90
2022-10-07T18:58:46.383Z,99.90
2022-10-07T19:01:16.993Z,99.90
2022-10-07T19:03:45.808Z,99.90
2022-10-07T19:06:15.169Z,99.90
2022-10-07T19:08:43.080Z,99.90
2022-10-07T19:11:12.732Z,99.90
2022-10-07T19:13:48.506Z,99.90
2022-10-07T19:16:18.622Z,99.90
2022-10-07T19:18:47.426Z,99.90
2022-10-07T19:21:15.932Z,99.90
2022-10-07T19:23:43.647Z,99.90
2022-10-07T19:26:12.719Z,99.90
2022-10-07T19:28:41.071Z,99.90
2022-10-07T19:31:14.100Z,99.90
2022-10-07T19:33:43.628Z,99.90
2022-10-07T19:36:12.759Z,99.90
2022-10-07T19:38:43.159Z,99.90
2022-10-07T19:41:12.416Z,99.90
2022-10-07T19:43:40.710Z,99.90
2022-10-07T19:46:09.040Z,99.90
2022-10-07T19:48:38.553Z,99.90
2022-10-07T19:51:12.090Z,99.90
2022-10-07T19:53:46.598Z,99.90
2022-10-07T19:56:16.618Z,99.90
2022-10-07T19:58:47.749Z,99.90
2022-10-07T20:01:16.980Z,99.90
2022-10-07T20:03:44.816Z,99.90
2022-10-07T20:06:14.866Z,99.90
2022-10-07T20:08:44.530Z,99.90
2022-10-07T20:11:12.764Z,99.90
2022-10-07T20:13:41.370Z,99.90
2022-10-07T20:16:13.084Z,99.90
2022-10-07T20:18:41.446Z,99.90
2022-10-07T20:21:11.919Z,99.90
2022-10-07T20:23:42.989Z,99.90
2022-10-07T20:26:15.892Z,99.90
2022-10-07T20:28:43.687Z,99.90
2022-10-07T20:31:13.592Z,99.90
2022-10-07T20:33:42.933Z,99.90
2022-10-07T20:36:13.067Z,99.90
2022-10-07T20:39:00.377Z,99.90
2022-10-07T20:41:46.819Z,99.90
2022-10-07T20:44:16.059Z,99.90
2022-10-07T20:46:44.094Z,99.90
2022-10-07T20:49:22.457Z,99.90
2022-10-07T20:51:50.441Z,99.90
2022-10-07T20:54:19.876Z,99.90
2022-10-07T20:56:48.924Z,99.90
2022-10-07T20:59:16.648Z,99.90
2022-10-07T21:01:44.912Z,99.90
2022-10-07T21:04:14.515Z,99.90
2022-10-07T21:06:42.502Z,99.90
2022-10-07T21:09:10.831Z,99.90
2022-10-07T21:11:40.065Z,99.90
2022-10-07T21:14:07.779Z,99.90
2022-10-07T21:16:36.401Z,99.90
2022-10-07T21:19:04.636Z,99.90
2022-10-07T21:21:32.372Z,99.90
2022-10-07T21:24:00.076Z,99.90
2022-10-07T21:26:27.836Z,99.90
2022-10-07T21:28:56.935Z,99.90
2022-10-07T21:31:25.446Z,99.90
2022-10-07T21:33:53.442Z,99.90
2022-10-07T21:36:23.685Z,99.90
2022-10-07T21:38:56.345Z,99.90
2022-10-07T21:41:26.299Z,99.90
2022-10-07T21:43:58.265Z,99.90
2022-10-07T21:46:27.583Z,99.90
2022-10-07T21:48:56.801Z,99.90
2022-10-07T21:51:25.219Z,99.90
2022-10-07T21:53:53.796Z,99.90
2022-10-07T21:56:22.030Z,99.90
2022-10-07T21:58:52.878Z,99.90
2022-10-07T22:01:23.659Z,99.90
2022-10-07T22:03:54.813Z,99.90
2022-10-07T22:06:43.386Z,99.90
2022-10-07T22:09:10.706Z,99.90
2022-10-07T22:11:38.826Z,99.90
2022-10-07T22:14:12.123Z,99.90
2022-10-07T22:16:42.005Z,99.90
2022-10-07T22:19:10.710Z,99.90
2022-10-07T22:21:40.337Z,99.90
2022-10-07T22:24:09.572Z,99.90
2022-10-07T22:26:40.491Z,99.90
2022-10-07T22:29:09.389Z,99.90
2022-10-07T22:31:39.441Z,99.90
2022-10-07T22:34:08.651Z,99.90
2022-10-07T22:36:36.887Z,99.90
2022-10-07T22:39:05.382Z,99.90
2022-10-07T22:41:33.088Z,99.90
2022-10-07T22:44:01.333Z,99.90
2022-10-07T22:46:29.577Z,99.90
2022-10-07T22:48:58.462Z,99.90
2022-10-07T22:51:28.691Z,99.90
2022-10-07T22:53:57.626Z,99.90
2022-10-07T22:56:27.557Z,99.90
2022-10-07T22:58:58.089Z,99.90
2022-10-07T23:01:29.325Z,99.90
2022-10-07T23:03:58.777Z,99.90
2022-10-07T23:06:28.011Z,99.90
2022-10-07T23:08:56.299Z,99.90
2022-10-07T23:11:26.101Z,99.90
2022-10-07T23:13:55.401Z,99.90
2022-10-07T23:16:25.104Z,99.90
2022-10-07T23:18:53.866Z,99.90
2022-10-07T23:21:24.052Z,99.90
2022-10-07T23:24:01.738Z,99.90
2022-10-07T23:26:33.385Z,99.90
2022-10-07T23:29:02.215Z,99.90
2022-10-07T23:31:31.674Z,99.90
2022-10-07T23:34:01.070Z,99.90
2022-10-07T23:36:29.634Z,99.90
2022-10-07T23:38:59.975Z,99.90
2022-10-07T23:41:29.305Z,99.90
2022-10-07T23:43:58.787Z,99.90
2022-10-07T23:46:27.902Z,99.90
2022-10-07T23:48:56.501Z,99.90
2022-10-07T23:51:27.134Z,99.90
2022-10-07T23:53:56.267Z,99.90
2022-10-07T23:56:25.791Z,99.90
2022-10-07T23:58:53.556Z,99.90
